Terminal Aerodrome Forecast
Issued by NWS

Home | Current Version | Previous Version | Text Only | Print | Product List | Glossary On
Versions: 1 2 3 4 5 6 7 8 9 10 11 12 13 14 15 16
000
FTUS44 KLIX 162300
TAFGPT
TAF
KGPT 162340Z 1700/1724 30005KT P6SM SCT060
      TEMPO 1700/1702 VRB15KT 3SM TSRA BKN030CB
     FM170200 VRB03KT P6SM SCT080
     FM171200 36005KT P6SM SCT040
     FM171600 VRB03KT P6SM SCT040
     FM171900 20005KT P6SM SCT045=

USA.gov is the U.S. government's official web portal to all federal, state and local government web resources and services.